Time;durP1;ratioP1;P1;durP2;ratioP2;P2;SDS_P1;SDS_P2;PMS_P1;PMS_P2;Temp;Humidity;BMP_temperature;BMP_pressure;BME280_temperature;BME280_humidity;BME280_pressure;Samples;Min_cycle;Max_cycle;Signal;HPM_P1;HPM_P2
2022/08/13 00:00:00;;;;;;;;;;;;;;;;;;1029428;28;2966;-46
2022/08/13 00:00:32;;;;;;;;;;;;;;;;;;1030867;28;3136;-45
2022/08/13 00:01:06;;;;;;;;;;;;;;;;;;1030009;28;2270;-45
2022/08/13 00:01:39;;;;;;;;;;;;;;;;;;1030668;28;1593;-44
2022/08/13 00:02:10;;;;;;;;;;;;;;;;;;1030019;28;2759;-47
2022/08/13 00:02:42;;;;;;;;;;;;;;;;;;1030615;28;2086;-50
2022/08/13 00:03:18;;;;;;;;;;;;;;;;;;1030297;28;2076;-47
2022/08/13 00:03:52;;;;;;;;;;;;;;;;;;1031020;28;1588;-46
2022/08/13 00:04:23;;;;;;;;;;;;;;;;;;1030156;28;3509;-46
2022/08/13 00:04:59;;;;;;;;;;;;;;;;;;1029922;28;3243;-48
2022/08/13 00:05:30;;;;;;;;;;;;;;;;;;1030329;28;1676;-46
2022/08/13 00:06:04;;;;;;;;;;;;;;;;;;1030432;28;1744;-45
2022/08/13 00:07:07;;;;;;;;;;;;;;;;;;1028721;28;4035;-45
2022/08/13 00:07:37;;;;;;;;;;;;;;;;;;1030280;28;4039;-44
2022/08/13 00:08:08;;;;;;;;;;;;;;;;;;1029694;28;2034;-46
2022/08/13 00:08:39;;;;;;;;;;;;;;;;;;1030335;28;4056;-47
2022/08/13 00:09:10;;;;;;;;;;;;;;;;;;1030389;28;2474;-45
2022/08/13 00:09:42;;;;;;;;;;;;;;;;;;1030142;28;1845;-45
2022/08/13 00:10:21;;;;;;;;;;;;;;;;;;1029602;28;2549;-46
2022/08/13 00:10:52;;;;;;;;;;;;;;;;;;1030964;28;1995;-45
2022/08/13 00:13:03;;;;;;;;;;;;;;;;;;1030383;28;1683;-47
2022/08/13 00:13:34;;;;;;;;;;;;;;;;;;1029889;28;1772;-49
2022/08/13 00:14:04;;;;;;;;;;;;;;;;;;1029671;28;4465;-48
2022/08/13 00:14:35;;;;;;;;;;;;;;;;;;1030316;28;4320;-46
2022/08/13 00:15:27;;;;;;;;;;;;;;;;;;1030807;28;1615;-46
2022/08/13 00:15:59;;;;;;;;;;;;;;;;;;1028033;28;3302;-45
2022/08/13 00:16:29;;;;;;;;;;;;;;;;;;1029720;28;4181;-48
2022/08/13 00:17:00;;;;;;;;;;;;;;;;;;1033922;28;3472;-44
2022/08/13 00:17:33;;;;;;;;;;;;;;;;;;1033526;28;2167;-44
2022/08/13 00:18:05;;;;;;;;;;;;;;;;;;1033671;28;4094;-44
2022/08/13 00:18:38;;;;;;;;;;;;;;;;;;1033087;28;1566;-46
2022/08/13 00:19:08;;;;;;;;;;;;;;;;;;1031152;28;1698;-44
2022/08/13 00:19:39;;;;;;;;;;;;;;;;;;1030086;28;1802;-45
2022/08/13 00:20:10;;;;;;;;;;;;;;;;;;1030620;28;1709;-45
2022/08/13 00:20:48;;;;;;;;;;;;;;;;;;1030698;28;1674;-47
2022/08/13 00:21:19;;;;;;;;;;;;;;;;;;1030388;28;1579;-47
2022/08/13 00:21:49;;;;;;;;;;;;;;;;;;1030132;28;1940;-48
2022/08/13 00:22:22;;;;;;;;;;;;;;;;;;1031010;28;4229;-51
2022/08/13 00:22:54;;;;;;;;;;;;;;;;;;1030307;28;1934;-50
2022/08/13 00:23:25;;;;;;;;;;;;;;;;;;1030679;28;1662;-46
2022/08/13 00:23:57;;;;;;;;;;;;;;;;;;1029095;28;6552;-46
2022/08/13 00:24:29;;;;;;;;;;;;;;;;;;1029101;28;4344;-46
2022/08/13 00:25:00;;;;;;;;;;;;;;;;;;1030725;28;1707;-45
2022/08/13 00:25:31;;;;;;;;;;;;;;;;;;1029810;28;2571;-46
2022/08/13 00:26:01;;;;;;;;;;;;;;;;;;1029647;28;3557;-45
2022/08/13 00:26:33;;;;;;;;;;;;;;;;;;1030528;28;1669;-48
2022/08/13 00:27:03;;;;;;;;;;;;;;;;;;1030598;28;1622;-46
2022/08/13 00:27:34;;;;;;;;;;;;;;;;;;1030623;28;1681;-46
2022/08/13 00:28:04;;;;;;;;;;;;;;;;;;1030256;28;2262;-47
2022/08/13 00:28:35;;;;;;;;;;;;;;;;;;1030868;28;1427;-48
2022/08/13 00:29:05;;;;;;;;;;;;;;;;;;1028922;28;3320;-46
2022/08/13 00:29:37;;;;;;;;;;;;;;;;;;1030234;28;3432;-47
2022/08/13 00:30:08;;;;;;;;;;;;;;;;;;1029000;28;4629;-46
2022/08/13 00:30:38;;;;;;;;;;;;;;;;;;1029445;28;3832;-46
2022/08/13 00:31:09;;;;;;;;;;;;;;;;;;1029046;28;3334;-47
2022/08/13 00:31:40;;;;;;;;;;;;;;;;;;1029545;28;1873;-45
2022/08/13 00:32:10;;;;;;;;;;;;;;;;;;1027874;28;3795;-46
2022/08/13 00:32:40;;;;;;;;;;;;;;;;;;1028442;28;4040;-47
2022/08/13 00:33:12;;;;;;;;;;;;;;;;;;1030108;28;3434;-46
2022/08/13 00:33:43;;;;;;;;;;;;;;;;;;1030154;28;1761;-48
2022/08/13 00:34:14;;;;;;;;;;;;;;;;;;1030137;28;1566;-47
2022/08/13 00:34:44;;;;;;;;;;;;;;;;;;1030888;28;1903;-48
2022/08/13 00:35:14;;;;;;;;;;;;;;;;;;1033692;28;2217;-46
2022/08/13 00:35:47;;;;;;;;;;;;;;;;;;1034436;28;2129;-46
2022/08/13 00:36:32;;;;;;;;;;;;;;;;;;1033621;28;4407;-47
2022/08/13 00:37:09;;;;;;;;;;;;;;;;;;1026238;28;1699;-45
2022/08/13 00:37:41;;;;;;;;;;;;;;;;;;1026529;28;1928;-46
2022/08/13 00:38:13;;;;;;;;;;;;;;;;;;1025877;28;1686;-47
2022/08/13 00:38:45;;;;;;;;;;;;;;;;;;1026465;28;1867;-46
2022/08/13 00:39:16;;;;;;;;;;;;;;;;;;1026200;28;1598;-46
2022/08/13 00:39:46;;;;;;;;;;;;;;;;;;1022359;29;2067;-46
2022/08/13 00:40:17;;;;;;;;;;;;;;;;;;1018229;29;1723;-44
2022/08/13 00:40:50;;;;;;;;;;;;;;;;;;1016793;29;2647;-45
2022/08/13 00:41:39;;;;;;;;;;;;;;;;;;1019032;28;1306;-46
2022/08/13 00:42:09;;;;;;;;;;;;;;;;;;1025356;28;1558;-46
2022/08/13 00:42:39;;;;;;;;;;;;;;;;;;1026485;28;1710;-45
2022/08/13 00:43:10;;;;;;;;;;;;;;;;;;1026534;28;1794;-45
2022/08/13 00:43:40;;;;;;;;;;;;;;;;;;1026545;28;1783;-46
2022/08/13 00:44:11;;;;;;;;;;;;;;;;;;1026324;28;1660;-45
2022/08/13 00:44:42;;;;;;;;;;;;;;;;;;1025457;28;3281;-46
2022/08/13 00:45:12;;;;;;;;;;;;;;;;;;1026462;28;1681;-48
2022/08/13 00:45:42;;;;;;;;;;;;;;;;;;1026590;28;1702;-46
2022/08/13 00:46:13;;;;;;;;;;;;;;;;;;1026544;28;1525;-47
2022/08/13 00:46:44;;;;;;;;;;;;;;;;;;1026938;28;1619;-47
2022/08/13 00:49:01;;;;;;;;;;;;;;;;;;1025997;28;1616;-46
2022/08/13 00:49:31;;;;;;;;;;;;;;;;;;1026489;28;1552;-46
2022/08/13 00:50:03;;;;;;;;;;;;;;;;;;1026279;28;1697;-45
2022/08/13 00:50:35;;;;;;;;;;;;;;;;;;1026464;28;1688;-49
2022/08/13 00:51:06;;;;;;;;;;;;;;;;;;1026583;28;1927;-47
2022/08/13 00:51:37;;;;;;;;;;;;;;;;;;1026200;28;1740;-46
2022/08/13 00:52:10;;;;;;;;;;;;;;;;;;1027032;28;1194;-45
2022/08/13 00:52:40;;;;;;;;;;;;;;;;;;1025721;28;3013;-47
2022/08/13 00:53:17;;;;;;;;;;;;;;;;;;1025942;28;3158;-47
2022/08/13 00:53:48;;;;;;;;;;;;;;;;;;1026484;28;1637;-45
2022/08/13 00:54:18;;;;;;;;;;;;;;;;;;1022029;28;3836;-46
2022/08/13 00:54:49;;;;;;;;;;;;;;;;;;1021334;28;1949;-46
2022/08/13 00:55:20;;;;;;;;;;;;;;;;;;1021888;29;1779;-46
2022/08/13 00:55:53;;;;;;;;;;;;;;;;;;1022183;28;1712;-45
2022/08/13 00:56:23;;;;;;;;;;;;;;;;;;1025451;28;3062;-48
2022/08/13 00:56:56;;;;;;;;;;;;;;;;;;1026607;28;1611;-45
2022/08/13 00:57:28;;;;;;;;;;;;;;;;;;1026293;28;1590;-47
2022/08/13 00:57:59;;;;;;;;;;;;;;;;;;1025809;28;1884;-46
2022/08/13 00:58:33;;;;;;;;;;;;;;;;;;1026620;28;1783;-49
2022/08/13 00:59:11;;;;;;;;;;;;;;;;;;1025780;28;3241;-47
2022/08/13 00:59:41;;;;;;;;;;;;;;;;;;1026153;28;1573;-45
2022/08/13 01:00:16;;;;;;;;;;;;;;;;;;1024942;28;2658;-46
2022/08/13 01:00:47;;;;;;;;;;;;;;;;;;1026047;28;2877;-47
2022/08/13 01:01:24;;;;;;;;;;;;;;;;;;1026422;28;1658;-45
2022/08/13 01:01:54;;;;;;;;;;;;;;;;;;1022108;28;1405;-47
2022/08/13 01:02:24;;;;;;;;;;;;;;;;;;1021268;28;1627;-46
2022/08/13 01:02:55;;;;;;;;;;;;;;;;;;1021125;28;2330;-44
2022/08/13 01:03:27;;;;;;;;;;;;;;;;;;1016779;29;3072;-47
2022/08/13 01:03:57;;;;;;;;;;;;;;;;;;1021187;28;3406;-46
2022/08/13 01:04:28;;;;;;;;;;;;;;;;;;1022944;28;3484;-47
2022/08/13 01:05:00;;;;;;;;;;;;;;;;;;1023643;28;1525;-49
2022/08/13 01:05:30;;;;;;;;;;;;;;;;;;1024739;28;2092;-46
2022/08/13 01:06:01;;;;;;;;;;;;;;;;;;1026119;28;1679;-47
2022/08/13 01:06:32;;;;;;;;;;;;;;;;;;1025845;28;2090;-45
2022/08/13 01:07:04;;;;;;;;;;;;;;;;;;1026806;28;1305;-45
2022/08/13 01:07:35;;;;;;;;;;;;;;;;;;1025613;28;1385;-45
2022/08/13 01:08:05;;;;;;;;;;;;;;;;;;1026535;28;2333;-46
2022/08/13 01:08:40;;;;;;;;;;;;;;;;;;1024871;28;3404;-45
2022/08/13 01:09:12;;;;;;;;;;;;;;;;;;1021927;28;2118;-46
2022/08/13 01:09:43;;;;;;;;;;;;;;;;;;1021347;28;1574;-45
2022/08/13 01:10:14;;;;;;;;;;;;;;;;;;1022352;28;1676;-47
2022/08/13 01:10:45;;;;;;;;;;;;;;;;;;1021886;28;2216;-46
2022/08/13 01:11:16;;;;;;;;;;;;;;;;;;1025610;28;1966;-46
2022/08/13 01:11:47;;;;;;;;;;;;;;;;;;1021645;28;2139;-49
2022/08/13 01:12:21;;;;;;;;;;;;;;;;;;1021850;28;1328;-44
2022/08/13 01:12:52;;;;;;;;;;;;;;;;;;1022193;28;1272;-48
2022/08/13 01:13:26;;;;;;;;;;;;;;;;;;1021966;28;2804;-46
2022/08/13 01:13:58;;;;;;;;;;;;;;;;;;1026016;28;2253;-48
2022/08/13 01:14:32;;;;;;;;;;;;;;;;;;1026288;28;1622;-45
2022/08/13 01:15:02;;;;;;;;;;;;;;;;;;1026056;28;1506;-46
2022/08/13 01:15:34;;;;;;;;;;;;;;;;;;1026486;28;1600;-46
2022/08/13 01:16:06;;;;;;;;;;;;;;;;;;1026207;28;1901;-44
2022/08/13 01:16:37;;;;;;;;;;;;;;;;;;1026247;28;1530;-46
2022/08/13 01:17:08;;;;;;;;;;;;;;;;;;1026098;28;1911;-47
2022/08/13 01:17:45;;;;;;;;;;;;;;;;;;1026360;28;2574;-44
2022/08/13 01:18:15;;;;;;;;;;;;;;;;;;1026103;28;1738;-45
2022/08/13 01:18:47;;;;;;;;;;;;;;;;;;1026949;28;1626;-45
2022/08/13 01:19:19;;;;;;;;;;;;;;;;;;1026217;28;2133;-44
2022/08/13 01:19:49;;;;;;;;;;;;;;;;;;1026293;28;1728;-45
2022/08/13 01:20:21;;;;;;;;;;;;;;;;;;1022087;28;1440;-45
2022/08/13 01:21:02;;;;;;;;;;;;;;;;;;1022397;28;1291;-44
2022/08/13 01:21:35;;;;;;;;;;;;;;;;;;1021447;28;3298;-47
2022/08/13 01:22:05;;;;;;;;;;;;;;;;;;1024591;28;1734;-46
2022/08/13 01:22:36;;;;;;;;;;;;;;;;;;1025675;28;1655;-45
2022/08/13 01:23:07;;;;;;;;;;;;;;;;;;1026169;28;2236;-44
2022/08/13 01:23:39;;;;;;;;;;;;;;;;;;1024638;28;3856;-47
2022/08/13 01:24:11;;;;;;;;;;;;;;;;;;1026332;28;1683;-47
2022/08/13 01:24:42;;;;;;;;;;;;;;;;;;1025027;28;2547;-45
2022/08/13 01:25:12;;;;;;;;;;;;;;;;;;1026362;28;1715;-46
2022/08/13 01:25:43;;;;;;;;;;;;;;;;;;1025579;28;3170;-45
2022/08/13 01:26:15;;;;;;;;;;;;;;;;;;1024589;28;2861;-44
2022/08/13 01:26:46;;;;;;;;;;;;;;;;;;1025884;28;1903;-47
2022/08/13 01:27:20;;;;;;;;;;;;;;;;;;1025799;28;1990;-48
2022/08/13 01:27:51;;;;;;;;;;;;;;;;;;1025868;28;1770;-45
2022/08/13 01:28:22;;;;;;;;;;;;;;;;;;1025994;28;1895;-48
2022/08/13 01:28:53;;;;;;;;;;;;;;;;;;1025649;28;1934;-49
2022/08/13 01:29:24;;;;;;;;;;;;;;;;;;1026329;28;1816;-45
2022/08/13 01:29:56;;;;;;;;;;;;;;;;;;1026401;28;1774;-44
2022/08/13 01:30:26;;;;;;;;;;;;;;;;;;1025851;28;2873;-45
2022/08/13 01:30:59;;;;;;;;;;;;;;;;;;1026229;28;3737;-46
2022/08/13 01:31:29;;;;;;;;;;;;;;;;;;1026379;28;1648;-45
2022/08/13 01:31:59;;;;;;;;;;;;;;;;;;1026219;28;1863;-46
2022/08/13 01:32:30;;;;;;;;;;;;;;;;;;1021454;28;3318;-43
2022/08/13 01:33:02;;;;;;;;;;;;;;;;;;1021279;28;2163;-48
2022/08/13 01:33:36;;;;;;;;;;;;;;;;;;1021782;29;1350;-45
2022/08/13 01:34:07;;;;;;;;;;;;;;;;;;1022865;28;2043;-47
2022/08/13 01:34:37;;;;;;;;;;;;;;;;;;1025283;28;2047;-47
2022/08/13 01:35:07;;;;;;;;;;;;;;;;;;1026123;28;3218;-47
2022/08/13 01:35:38;;;;;;;;;;;;;;;;;;1026071;28;2164;-44
2022/08/13 01:36:09;;;;;;;;;;;;;;;;;;1026106;28;1407;-48
2022/08/13 01:36:53;;;;;;;;;;;;;;;;;;1027497;28;4715;-44
2022/08/13 01:37:30;;;;;;;;;;;;;;;;;;1029885;28;1664;-47
2022/08/13 01:38:01;;;;;;;;;;;;;;;;;;1029396;28;3643;-45
2022/08/13 01:38:32;;;;;;;;;;;;;;;;;;1028947;28;2708;-47
2022/08/13 01:39:04;;;;;;;;;;;;;;;;;;1030413;28;1379;-46
2022/08/13 01:39:35;;;;;;;;;;;;;;;;;;1029492;28;1777;-49
2022/08/13 01:40:06;;;;;;;;;;;;;;;;;;1029774;28;1622;-47
2022/08/13 01:40:36;;;;;;;;;;;;;;;;;;1029182;28;3060;-47
2022/08/13 01:41:08;;;;;;;;;;;;;;;;;;1029802;28;1639;-46
2022/08/13 01:41:39;;;;;;;;;;;;;;;;;;1029202;28;3224;-44
2022/08/13 01:42:13;;;;;;;;;;;;;;;;;;1030139;28;1659;-45
2022/08/13 01:42:45;;;;;;;;;;;;;;;;;;1029028;28;3298;-46
2022/08/13 01:43:17;;;;;;;;;;;;;;;;;;1030798;28;1582;-45
2022/08/13 01:43:48;;;;;;;;;;;;;;;;;;1029385;28;1868;-45
2022/08/13 01:44:18;;;;;;;;;;;;;;;;;;1030596;28;1665;-47
2022/08/13 01:44:48;;;;;;;;;;;;;;;;;;1029703;28;1838;-47
2022/08/13 01:45:19;;;;;;;;;;;;;;;;;;1029866;28;3304;-47
2022/08/13 01:45:49;;;;;;;;;;;;;;;;;;1029293;28;3529;-46
2022/08/13 01:46:20;;;;;;;;;;;;;;;;;;1029809;28;2797;-44
2022/08/13 01:50:29;;;;;;;;;;;;;;;;;;1029857;28;1907;-46
2022/08/13 01:50:59;;;;;;;;;;;;;;;;;;1030167;28;2361;-49
2022/08/13 01:51:31;;;;;;;;;;;;;;;;;;1029699;28;1587;-48
2022/08/13 01:52:02;;;;;;;;;;;;;;;;;;1030356;28;1755;-47
2022/08/13 01:52:33;;;;;;;;;;;;;;;;;;1029083;28;2434;-44
2022/08/13 01:53:08;;;;;;;;;;;;;;;;;;1028675;28;3464;-46
2022/08/13 01:53:39;;;;;;;;;;;;;;;;;;1030473;28;3960;-46
2022/08/13 01:54:09;;;;;;;;;;;;;;;;;;1030120;28;1575;-45
2022/08/13 01:54:41;;;;;;;;;;;;;;;;;;1030246;28;1669;-44
2022/08/13 01:55:12;;;;;;;;;;;;;;;;;;1030440;28;1913;-46
2022/08/13 01:55:44;;;;;;;;;;;;;;;;;;1030088;28;1987;-49
2022/08/13 01:56:20;;;;;;;;;;;;;;;;;;1029205;28;2530;-48
2022/08/13 01:56:51;;;;;;;;;;;;;;;;;;1030014;28;3372;-45
2022/08/13 01:57:22;;;;;;;;;;;;;;;;;;1029993;28;1665;-44
2022/08/13 01:57:53;;;;;;;;;;;;;;;;;;1030355;28;1669;-46
2022/08/13 01:58:24;;;;;;;;;;;;;;;;;;1030515;28;1687;-44
2022/08/13 01:58:56;;;;;;;;;;;;;;;;;;1029335;28;2898;-46
2022/08/13 01:59:27;;;;;;;;;;;;;;;;;;1029947;28;3256;-45
2022/08/13 01:59:58;;;;;;;;;;;;;;;;;;1029989;28;1670;-46
2022/08/13 02:00:30;;;;;;;;;;;;;;;;;;1030513;28;1694;-45
2022/08/13 02:01:03;;;;;;;;;;;;;;;;;;1029249;28;2570;-46
2022/08/13 02:01:34;;;;;;;;;;;;;;;;;;1029777;28;2465;-46
2022/08/13 02:02:05;;;;;;;;;;;;;;;;;;1029978;28;1576;-45
2022/08/13 02:02:36;;;;;;;;;;;;;;;;;;1029616;28;1789;-44
2022/08/13 02:03:09;;;;;;;;;;;;;;;;;;1029717;28;2044;-43
2022/08/13 02:03:40;;;;;;;;;;;;;;;;;;1030124;28;1801;-46
2022/08/13 02:04:13;;;;;;;;;;;;;;;;;;1033140;28;1700;-46
2022/08/13 02:04:44;;;;;;;;;;;;;;;;;;1033573;28;1602;-47
2022/08/13 02:05:14;;;;;;;;;;;;;;;;;;1033245;28;1689;-46
2022/08/13 02:05:47;;;;;;;;;;;;;;;;;;1032870;28;1674;-47
2022/08/13 02:06:22;;;;;;;;;;;;;;;;;;1029776;28;1751;-48
2022/08/13 02:06:52;;;;;;;;;;;;;;;;;;1030211;28;1733;-45
2022/08/13 02:07:22;;;;;;;;;;;;;;;;;;1029854;28;1674;-46
2022/08/13 02:07:53;;;;;;;;;;;;;;;;;;1030154;28;1922;-47
2022/08/13 02:08:26;;;;;;;;;;;;;;;;;;1028343;28;3558;-45
2022/08/13 02:08:59;;;;;;;;;;;;;;;;;;1030532;28;1718;-45
2022/08/13 02:09:31;;;;;;;;;;;;;;;;;;1028195;28;3355;-49
2022/08/13 02:10:01;;;;;;;;;;;;;;;;;;1030343;28;1672;-46
2022/08/13 02:10:32;;;;;;;;;;;;;;;;;;1029766;28;1990;-48
2022/08/13 02:11:03;;;;;;;;;;;;;;;;;;1030309;28;1930;-44
2022/08/13 02:11:35;;;;;;;;;;;;;;;;;;1029683;28;1660;-45
2022/08/13 02:12:06;;;;;;;;;;;;;;;;;;1029858;28;2325;-48
2022/08/13 02:12:36;;;;;;;;;;;;;;;;;;1029860;28;1723;-47
2022/08/13 02:13:10;;;;;;;;;;;;;;;;;;1030162;28;1700;-48
2022/08/13 02:13:41;;;;;;;;;;;;;;;;;;1028704;28;3444;-46
2022/08/13 02:14:13;;;;;;;;;;;;;;;;;;1033403;28;2485;-47
2022/08/13 02:14:44;;;;;;;;;;;;;;;;;;1033265;28;1921;-49
2022/08/13 02:15:15;;;;;;;;;;;;;;;;;;1034275;28;1571;-43
2022/08/13 02:15:46;;;;;;;;;;;;;;;;;;1033161;28;2551;-46
2022/08/13 02:16:16;;;;;;;;;;;;;;;;;;1030340;28;1814;-44
2022/08/13 02:16:47;;;;;;;;;;;;;;;;;;1030129;28;2156;-46
2022/08/13 02:17:27;;;;;;;;;;;;;;;;;;1030091;28;2026;-49
2022/08/13 02:18:01;;;;;;;;;;;;;;;;;;1029616;28;1877;-45
2022/08/13 02:18:32;;;;;;;;;;;;;;;;;;1029396;28;2766;-47
2022/08/13 02:19:07;;;;;;;;;;;;;;;;;;1029154;28;3023;-47
2022/08/13 02:19:40;;;;;;;;;;;;;;;;;;1030523;28;1595;-46
2022/08/13 02:20:17;;;;;;;;;;;;;;;;;;1029095;28;2405;-45
2022/08/13 02:20:49;;;;;;;;;;;;;;;;;;1029381;28;3867;-47
2022/08/13 02:21:21;;;;;;;;;;;;;;;;;;1027516;28;3548;-46
2022/08/13 02:21:51;;;;;;;;;;;;;;;;;;1030638;28;1610;-46
2022/08/13 02:22:22;;;;;;;;;;;;;;;;;;1029189;28;2807;-49
2022/08/13 02:22:53;;;;;;;;;;;;;;;;;;1029533;28;1537;-46
2022/08/13 02:23:26;;;;;;;;;;;;;;;;;;1030042;28;1961;-44
2022/08/13 02:23:57;;;;;;;;;;;;;;;;;;1029912;28;1496;-47
2022/08/13 02:24:27;;;;;;;;;;;;;;;;;;1028743;28;2945;-46
2022/08/13 02:24:59;;;;;;;;;;;;;;;;;;1030279;28;2059;-45
2022/08/13 02:25:30;;;;;;;;;;;;;;;;;;1029592;28;1862;-47
2022/08/13 02:26:01;;;;;;;;;;;;;;;;;;1030185;28;2622;-47
2022/08/13 02:26:33;;;;;;;;;;;;;;;;;;1029941;28;2155;-46
2022/08/13 02:27:03;;;;;;;;;;;;;;;;;;1030149;28;1711;-47
2022/08/13 02:27:33;;;;;;;;;;;;;;;;;;1030038;28;2097;-45
2022/08/13 02:28:04;;;;;;;;;;;;;;;;;;1030322;28;1756;-46
2022/08/13 02:28:39;;;;;;;;;;;;;;;;;;1029779;28;2053;-44
2022/08/13 02:29:12;;;;;;;;;;;;;;;;;;1030178;28;1614;-46
2022/08/13 02:29:44;;;;;;;;;;;;;;;;;;1033235;28;2600;-46
2022/08/13 02:30:17;;;;;;;;;;;;;;;;;;1033038;28;2881;-46
2022/08/13 02:30:48;;;;;;;;;;;;;;;;;;1033598;28;2821;-47
2022/08/13 02:31:18;;;;;;;;;;;;;;;;;;1032488;28;1983;-47
2022/08/13 02:31:49;;;;;;;;;;;;;;;;;;1029991;28;1976;-46
2022/08/13 02:32:19;;;;;;;;;;;;;;;;;;1029747;28;2164;-45
2022/08/13 02:32:50;;;;;;;;;;;;;;;;;;1029975;28;1533;-46
2022/08/13 02:33:20;;;;;;;;;;;;;;;;;;1029721;28;1685;-46
2022/08/13 02:33:52;;;;;;;;;;;;;;;;;;1028637;28;2182;-46
2022/08/13 02:34:22;;;;;;;;;;;;;;;;;;1030231;28;1808;-47
2022/08/13 02:34:53;;;;;;;;;;;;;;;;;;1030326;28;1920;-45
2022/08/13 02:35:23;;;;;;;;;;;;;;;;;;1029922;28;1591;-46
2022/08/13 02:35:54;;;;;;;;;;;;;;;;;;1029088;28;2419;-45
2022/08/13 02:36:46;;;;;;;;;;;;;;;;;;1029012;28;3869;-44
2022/08/13 02:37:23;;;;;;;;;;;;;;;;;;1025963;28;1973;-44
2022/08/13 02:37:54;;;;;;;;;;;;;;;;;;1026291;28;1443;-46
2022/08/13 02:38:24;;;;;;;;;;;;;;;;;;1024262;28;3810;-45
2022/08/13 02:38:59;;;;;;;;;;;;;;;;;;1025893;28;4252;-45
2022/08/13 02:39:29;;;;;;;;;;;;;;;;;;1026014;28;1739;-46
2022/08/13 02:40:02;;;;;;;;;;;;;;;;;;1025690;28;1791;-46
2022/08/13 02:42:11;;;;;;;;;;;;;;;;;;1022648;28;1680;-46
2022/08/13 02:42:42;;;;;;;;;;;;;;;;;;1025686;28;3100;-45
2022/08/13 02:43:12;;;;;;;;;;;;;;;;;;1025845;28;1945;-47
2022/08/13 02:43:46;;;;;;;;;;;;;;;;;;1026362;28;1548;-45
2022/08/13 02:44:16;;;;;;;;;;;;;;;;;;1025854;28;1780;-45
2022/08/13 02:44:48;;;;;;;;;;;;;;;;;;1026255;28;1269;-46
2022/08/13 02:45:19;;;;;;;;;;;;;;;;;;1024905;28;2384;-46
2022/08/13 02:45:50;;;;;;;;;;;;;;;;;;1022267;28;1664;-47
2022/08/13 02:46:21;;;;;;;;;;;;;;;;;;1021531;28;2048;-45
2022/08/13 02:46:51;;;;;;;;;;;;;;;;;;1021672;28;1613;-47
2022/08/13 02:47:23;;;;;;;;;;;;;;;;;;1022368;28;1402;-46
2022/08/13 02:47:53;;;;;;;;;;;;;;;;;;1025850;28;1770;-46
2022/08/13 02:48:24;;;;;;;;;;;;;;;;;;1026010;28;1370;-45
2022/08/13 02:48:58;;;;;;;;;;;;;;;;;;1026224;28;1592;-45
2022/08/13 02:49:29;;;;;;;;;;;;;;;;;;1025743;28;2383;-47
2022/08/13 02:49:59;;;;;;;;;;;;;;;;;;1026147;28;1593;-45
2022/08/13 02:50:30;;;;;;;;;;;;;;;;;;1025251;28;2585;-46
2022/08/13 02:51:00;;;;;;;;;;;;;;;;;;1024946;28;2344;-49
2022/08/13 02:51:31;;;;;;;;;;;;;;;;;;1025750;28;1826;-45
2022/08/13 02:52:03;;;;;;;;;;;;;;;;;;1026141;28;1664;-45
2022/08/13 02:52:36;;;;;;;;;;;;;;;;;;1025887;28;2511;-47
2022/08/13 02:53:06;;;;;;;;;;;;;;;;;;1025911;28;2036;-46
2022/08/13 02:53:38;;;;;;;;;;;;;;;;;;1024978;28;3750;-47
2022/08/13 02:54:08;;;;;;;;;;;;;;;;;;1023486;28;3667;-47
2022/08/13 02:54:40;;;;;;;;;;;;;;;;;;1025783;28;3127;-46
2022/08/13 02:55:10;;;;;;;;;;;;;;;;;;1026155;28;1682;-46
2022/08/13 02:55:41;;;;;;;;;;;;;;;;;;1025077;28;3231;-44
2022/08/13 02:56:11;;;;;;;;;;;;;;;;;;1026414;28;1400;-46
2022/08/13 02:56:42;;;;;;;;;;;;;;;;;;1025646;28;2083;-47
2022/08/13 02:57:13;;;;;;;;;;;;;;;;;;1026275;28;1726;-44
2022/08/13 02:57:43;;;;;;;;;;;;;;;;;;1025812;28;1608;-47
2022/08/13 02:58:17;;;;;;;;;;;;;;;;;;1026385;28;1691;-48
2022/08/13 02:58:47;;;;;;;;;;;;;;;;;;1026148;28;1003;-46
2022/08/13 02:59:17;;;;;;;;;;;;;;;;;;1025603;28;2218;-48
2022/08/13 02:59:47;;;;;;;;;;;;;;;;;;1026378;28;1774;-44
2022/08/13 03:00:19;;;;;;;;;;;;;;;;;;1023951;28;3693;-46
2022/08/13 03:00:51;;;;;;;;;;;;;;;;;;1025386;28;3605;-47
2022/08/13 03:01:26;;;;;;;;;;;;;;;;;;1025405;28;1419;-46
2022/08/13 03:01:57;;;;;;;;;;;;;;;;;;1024221;28;3219;-46
2022/08/13 03:02:28;;;;;;;;;;;;;;;;;;1025098;28;2209;-45
2022/08/13 03:02:59;;;;;;;;;;;;;;;;;;1025734;28;1617;-44
2022/08/13 03:03:31;;;;;;;;;;;;;;;;;;1025147;28;3265;-46
2022/08/13 03:04:01;;;;;;;;;;;;;;;;;;1025287;28;3452;-45
2022/08/13 03:04:32;;;;;;;;;;;;;;;;;;1025576;28;1579;-48
2022/08/13 03:05:03;;;;;;;;;;;;;;;;;;1025541;28;1332;-47
2022/08/13 03:05:33;;;;;;;;;;;;;;;;;;1024439;28;2511;-47
2022/08/13 03:06:04;;;;;;;;;;;;;;;;;;1026073;28;1614;-45
2022/08/13 03:06:34;;;;;;;;;;;;;;;;;;1025486;28;1745;-44
2022/08/13 03:07:05;;;;;;;;;;;;;;;;;;1025682;28;1809;-48
2022/08/13 03:07:37;;;;;;;;;;;;;;;;;;1025749;28;1691;-46
2022/08/13 03:08:07;;;;;;;;;;;;;;;;;;1026387;28;1392;-44
2022/08/13 03:08:38;;;;;;;;;;;;;;;;;;1024807;28;2114;-46
2022/08/13 03:09:08;;;;;;;;;;;;;;;;;;1025489;28;2309;-48
2022/08/13 03:09:38;;;;;;;;;;;;;;;;;;1025635;28;3072;-45
2022/08/13 03:10:11;;;;;;;;;;;;;;;;;;1026394;28;1578;-46
2022/08/13 03:10:41;;;;;;;;;;;;;;;;;;1026203;28;1425;-44
2022/08/13 03:11:12;;;;;;;;;;;;;;;;;;1026200;28;1938;-45
2022/08/13 03:11:43;;;;;;;;;;;;;;;;;;1017520;29;2043;-46
2022/08/13 03:12:15;;;;;;;;;;;;;;;;;;1018249;29;1916;-44
2022/08/13 03:12:48;;;;;;;;;;;;;;;;;;1018345;29;1742;-45
2022/08/13 03:13:32;;;;;;;;;;;;;;;;;;1018692;28;1908;-45
2022/08/13 03:14:03;;;;;;;;;;;;;;;;;;1025947;28;1960;-44
2022/08/13 03:14:35;;;;;;;;;;;;;;;;;;1023714;28;3762;-46
2022/08/13 03:15:06;;;;;;;;;;;;;;;;;;1026230;28;3951;-46
2022/08/13 03:15:38;;;;;;;;;;;;;;;;;;1026291;28;1582;-46
2022/08/13 03:16:09;;;;;;;;;;;;;;;;;;1025059;28;1299;-46
2022/08/13 03:16:39;;;;;;;;;;;;;;;;;;1025659;28;1829;-44
2022/08/13 03:17:23;;;;;;;;;;;;;;;;;;1026406;28;1807;-46
2022/08/13 03:17:53;;;;;;;;;;;;;;;;;;1025359;28;3354;-47
2022/08/13 03:18:24;;;;;;;;;;;;;;;;;;1025344;28;2020;-47
2022/08/13 03:18:56;;;;;;;;;;;;;;;;;;1026326;28;1928;-47
2022/08/13 03:19:27;;;;;;;;;;;;;;;;;;1025805;28;1794;-47
2022/08/13 03:19:57;;;;;;;;;;;;;;;;;;1026072;28;1991;-46
2022/08/13 03:20:34;;;;;;;;;;;;;;;;;;1025736;28;2145;-46
2022/08/13 03:21:04;;;;;;;;;;;;;;;;;;1026535;28;2572;-47
2022/08/13 03:21:36;;;;;;;;;;;;;;;;;;1024290;28;3500;-47
2022/08/13 03:22:06;;;;;;;;;;;;;;;;;;1026034;28;1376;-46
2022/08/13 03:22:50;;;;;;;;;;;;;;;;;;1025985;28;2341;-45
2022/08/13 03:23:22;;;;;;;;;;;;;;;;;;1026139;28;1946;-45
2022/08/13 03:23:52;;;;;;;;;;;;;;;;;;1025787;28;1428;-45
2022/08/13 03:24:23;;;;;;;;;;;;;;;;;;1022693;28;2170;-47
2022/08/13 03:24:53;;;;;;;;;;;;;;;;;;1021675;28;3240;-44
2022/08/13 03:25:29;;;;;;;;;;;;;;;;;;1022545;28;1977;-47
2022/08/13 03:26:00;;;;;;;;;;;;;;;;;;1023108;28;2140;-46
2022/08/13 03:26:31;;;;;;;;;;;;;;;;;;1026363;28;2181;-45
2022/08/13 03:27:01;;;;;;;;;;;;;;;;;;1026427;28;2062;-45
2022/08/13 03:27:32;;;;;;;;;;;;;;;;;;1026016;28;2310;-45
2022/08/13 03:28:03;;;;;;;;;;;;;;;;;;1025929;28;2065;-47
2022/08/13 03:28:33;;;;;;;;;;;;;;;;;;1026744;28;1983;-45
2022/08/13 03:29:04;;;;;;;;;;;;;;;;;;1026084;28;1742;-45
2022/08/13 03:29:35;;;;;;;;;;;;;;;;;;1025690;28;2874;-46
2022/08/13 03:30:06;;;;;;;;;;;;;;;;;;1021540;29;3043;-46
2022/08/13 03:30:36;;;;;;;;;;;;;;;;;;1021430;28;2845;-45
2022/08/13 03:31:07;;;;;;;;;;;;;;;;;;1022531;28;2318;-47
2022/08/13 03:31:38;;;;;;;;;;;;;;;;;;1022555;28;1580;-48
2022/08/13 03:32:08;;;;;;;;;;;;;;;;;;1026548;28;1921;-46
2022/08/13 03:32:40;;;;;;;;;;;;;;;;;;1026571;28;1569;-48
2022/08/13 03:33:11;;;;;;;;;;;;;;;;;;1026636;28;1837;-46
2022/08/13 03:33:42;;;;;;;;;;;;;;;;;;1026619;28;1971;-46
2022/08/13 03:34:12;;;;;;;;;;;;;;;;;;1025633;28;1905;-48
2022/08/13 03:34:43;;;;;;;;;;;;;;;;;;1026287;28;1423;-47
2022/08/13 03:35:20;;;;;;;;;;;;;;;;;;1025907;28;1624;-46
2022/08/13 03:35:50;;;;;;;;;;;;;;;;;;1025388;28;2067;-45
2022/08/13 03:36:21;;;;;;;;;;;;;;;;;;1024974;28;3398;-49
2022/08/13 03:36:53;;;;;;;;;;;;;;;;;;1027866;28;3095;-45
2022/08/13 03:37:38;;;;;;;;;;;;;;;;;;1030656;28;2137;-46
2022/08/13 03:38:10;;;;;;;;;;;;;;;;;;1033193;28;2073;-47
2022/08/13 03:38:40;;;;;;;;;;;;;;;;;;1035077;28;1575;-47
2022/08/13 03:39:10;;;;;;;;;;;;;;;;;;1034130;28;2014;-47
2022/08/13 03:39:41;;;;;;;;;;;;;;;;;;1034646;28;1640;-46
2022/08/13 03:40:13;;;;;;;;;;;;;;;;;;1029531;28;1616;-46
2022/08/13 03:41:02;;;;;;;;;;;;;;;;;;1035026;28;1991;-45
2022/08/13 03:41:32;;;;;;;;;;;;;;;;;;1033136;28;1959;-47
2022/08/13 03:42:02;;;;;;;;;;;;;;;;;;1033819;28;3148;-45
2022/08/13 03:42:34;;;;;;;;;;;;;;;;;;1031441;28;1646;-47
2022/08/13 03:43:08;;;;;;;;;;;;;;;;;;1031133;28;3298;-48
2022/08/13 03:43:42;;;;;;;;;;;;;;;;;;1030425;28;2037;-47
2022/08/13 03:44:12;;;;;;;;;;;;;;;;;;1030766;28;1739;-46
2022/08/13 03:44:42;;;;;;;;;;;;;;;;;;1030468;28;1697;-44
2022/08/13 03:45:12;;;;;;;;;;;;;;;;;;1030490;28;1430;-48
2022/08/13 03:45:44;;;;;;;;;;;;;;;;;;1030431;28;1668;-45
2022/08/13 03:46:19;;;;;;;;;;;;;;;;;;1031249;28;1696;-46
2022/08/13 03:46:49;;;;;;;;;;;;;;;;;;1031160;28;3677;-47
2022/08/13 03:47:19;;;;;;;;;;;;;;;;;;1034883;28;1271;-45
2022/08/13 03:47:51;;;;;;;;;;;;;;;;;;1033291;28;2230;-49
2022/08/13 03:48:22;;;;;;;;;;;;;;;;;;1033324;28;1561;-45
2022/08/13 03:48:52;;;;;;;;;;;;;;;;;;1030278;28;2221;-45
2022/08/13 03:49:24;;;;;;;;;;;;;;;;;;1030901;28;1614;-44
2022/08/13 03:49:55;;;;;;;;;;;;;;;;;;1030262;28;1589;-46
2022/08/13 03:50:25;;;;;;;;;;;;;;;;;;1030986;28;1453;-46